sensor_id;sensor_type;location;lat;lon;timestamp;P1;durP1;ratioP1;P2;durP2;ratioP2
25649;SDS011;13505;45.196;5.696;2022-09-01T04:02:14;9.10;;;5.85;;
25649;SDS011;13505;45.196;5.696;2022-09-01T04:07:04;9.95;;;6.28;;
25649;SDS011;13505;45.196;5.696;2022-09-01T04:11:56;9.07;;;5.88;;
25649;SDS011;13505;45.196;5.696;2022-09-01T04:16:46;7.87;;;5.53;;
25649;SDS011;13505;45.196;5.696;2022-09-01T04:21:57;7.32;;;5.53;;
25649;SDS011;13505;45.196;5.696;2022-09-01T04:26:50;7.68;;;5.72;;
25649;SDS011;13505;45.196;5.696;2022-09-01T04:31:41;11.00;;;5.72;;
25649;SDS011;13505;45.196;5.696;2022-09-01T04:36:31;10.18;;;6.18;;
25649;SDS011;13505;45.196;5.696;2022-09-01T04:41:23;9.32;;;5.50;;
25649;SDS011;13505;45.196;5.696;2022-09-01T04:46:16;13.60;;;6.38;;
25649;SDS011;13505;45.196;5.696;2022-09-01T04:51:08;8.18;;;6.53;;
25649;SDS011;13505;45.196;5.696;2022-09-01T04:56:02;10.73;;;6.22;;
25649;SDS011;13505;45.196;5.696;2022-09-01T05:00:54;11.85;;;6.10;;
25649;SDS011;13505;45.196;5.696;2022-09-01T05:05:44;9.85;;;6.70;;
25649;SDS011;13505;45.196;5.696;2022-09-01T05:10:37;15.90;;;6.07;;
25649;SDS011;13505;45.196;5.696;2022-09-01T05:15:30;9.88;;;5.40;;
25649;SDS011;13505;45.196;5.696;2022-09-01T05:20:21;13.45;;;5.20;;
25649;SDS011;13505;45.196;5.696;2022-09-01T05:25:14;10.40;;;5.22;;
25649;SDS011;13505;45.196;5.696;2022-09-01T05:30:04;8.85;;;5.07;;
25649;SDS011;13505;45.196;5.696;2022-09-01T05:34:57;5.63;;;4.82;;
25649;SDS011;13505;45.196;5.696;2022-09-01T05:39:48;11.48;;;5.68;;
25649;SDS011;13505;45.196;5.696;2022-09-01T05:44:39;8.73;;;5.38;;
25649;SDS011;13505;45.196;5.696;2022-09-01T05:49:33;9.00;;;6.60;;
25649;SDS011;13505;45.196;5.696;2022-09-01T05:54:24;12.30;;;6.13;;
25649;SDS011;13505;45.196;5.696;2022-09-01T05:59:16;13.35;;;6.63;;
25649;SDS011;13505;45.196;5.696;2022-09-01T06:04:09;12.38;;;7.15;;
25649;SDS011;13505;45.196;5.696;2022-09-01T06:09:00;9.55;;;7.07;;
25649;SDS011;13505;45.196;5.696;2022-09-01T06:13:51;13.23;;;6.30;;
25649;SDS011;13505;45.196;5.696;2022-09-01T06:18:45;12.15;;;6.93;;
25649;SDS011;13505;45.196;5.696;2022-09-01T06:23:36;10.45;;;6.80;;
25649;SDS011;13505;45.196;5.696;2022-09-01T06:28:26;11.73;;;6.97;;
25649;SDS011;13505;45.196;5.696;2022-09-01T06:33:18;12.43;;;7.18;;
25649;SDS011;13505;45.196;5.696;2022-09-01T06:38:09;12.55;;;7.03;;
25649;SDS011;13505;45.196;5.696;2022-09-01T06:43:01;13.77;;;6.65;;
25649;SDS011;13505;45.196;5.696;2022-09-01T06:47:56;7.50;;;5.60;;
25649;SDS011;13505;45.196;5.696;2022-09-01T06:52:47;5.77;;;4.83;;
25649;SDS011;13505;45.196;5.696;2022-09-01T06:57:50;6.28;;;4.82;;
25649;SDS011;13505;45.196;5.696;2022-09-01T07:02:43;8.68;;;4.80;;
25649;SDS011;13505;45.196;5.696;2022-09-01T07:07:34;6.82;;;5.03;;
25649;SDS011;13505;45.196;5.696;2022-09-01T07:12:26;10.88;;;5.05;;
25649;SDS011;13505;45.196;5.696;2022-09-01T07:17:17;7.75;;;5.13;;
25649;SDS011;13505;45.196;5.696;2022-09-01T07:22:08;10.70;;;5.95;;
25649;SDS011;13505;45.196;5.696;2022-09-01T07:26:59;11.70;;;5.20;;
25649;SDS011;13505;45.196;5.696;2022-09-01T07:31:49;10.40;;;6.83;;
25649;SDS011;13505;45.196;5.696;2022-09-01T07:36:42;5.30;;;4.80;;
25649;SDS011;13505;45.196;5.696;2022-09-01T07:41:33;7.32;;;4.97;;
25649;SDS011;13505;45.196;5.696;2022-09-01T07:46:23;9.68;;;4.88;;
25649;SDS011;13505;45.196;5.696;2022-09-01T07:51:15;6.95;;;5.10;;
25649;SDS011;13505;45.196;5.696;2022-09-01T07:56:09;5.85;;;5.00;;
25649;SDS011;13505;45.196;5.696;2022-09-01T08:01:01;7.38;;;5.20;;
25649;SDS011;13505;45.196;5.696;2022-09-01T08:06:00;6.65;;;5.28;;
25649;SDS011;13505;45.196;5.696;2022-09-01T08:10:55;6.65;;;4.70;;
25649;SDS011;13505;45.196;5.696;2022-09-01T08:15:45;8.30;;;5.13;;
25649;SDS011;13505;45.196;5.696;2022-09-01T08:20:37;8.73;;;4.70;;
25649;SDS011;13505;45.196;5.696;2022-09-01T08:25:35;5.95;;;5.10;;
25649;SDS011;13505;45.196;5.696;2022-09-01T08:30:26;6.85;;;5.00;;
25649;SDS011;13505;45.196;5.696;2022-09-01T08:35:17;6.10;;;4.78;;
25649;SDS011;13505;45.196;5.696;2022-09-01T08:40:09;7.20;;;5.13;;
25649;SDS011;13505;45.196;5.696;2022-09-01T08:50:02;6.63;;;4.88;;
25649;SDS011;13505;45.196;5.696;2022-09-01T08:59:51;11.10;;;5.03;;
25649;SDS011;13505;45.196;5.696;2022-09-01T09:09:57;6.72;;;4.85;;
25649;SDS011;13505;45.196;5.696;2022-09-01T09:20:03;8.73;;;5.70;;
25649;SDS011;13505;45.196;5.696;2022-09-01T09:25:14;7.43;;;5.70;;
25649;SDS011;13505;45.196;5.696;2022-09-01T09:35:15;8.52;;;5.75;;
25649;SDS011;13505;45.196;5.696;2022-09-01T09:40:16;6.78;;;5.50;;
25649;SDS011;13505;45.196;5.696;2022-09-01T09:45:20;10.43;;;5.43;;
25649;SDS011;13505;45.196;5.696;2022-09-01T09:50:23;6.57;;;5.43;;
25649;SDS011;13505;45.196;5.696;2022-09-01T10:00:30;6.88;;;5.60;;
25649;SDS011;13505;45.196;5.696;2022-09-01T10:05:25;7.53;;;5.78;;
25649;SDS011;13505;45.196;5.696;2022-09-01T10:15:35;7.28;;;5.25;;
25649;SDS011;13505;45.196;5.696;2022-09-01T10:20:25;8.15;;;5.82;;
25649;SDS011;13505;45.196;5.696;2022-09-01T10:25:27;9.35;;;5.93;;
25649;SDS011;13505;45.196;5.696;2022-09-01T10:30:22;8.25;;;5.47;;
25649;SDS011;13505;45.196;5.696;2022-09-01T10:35:14;7.13;;;4.53;;
25649;SDS011;13505;45.196;5.696;2022-09-01T10:40:17;5.55;;;4.47;;
25649;SDS011;13505;45.196;5.696;2022-09-01T10:50:30;5.68;;;4.63;;
25649;SDS011;13505;45.196;5.696;2022-09-01T10:55:29;7.13;;;5.07;;
25649;SDS011;13505;45.196;5.696;2022-09-01T11:05:13;6.80;;;4.55;;
25649;SDS011;13505;45.196;5.696;2022-09-01T11:20:05;6.65;;;4.57;;
25649;SDS011;13505;45.196;5.696;2022-09-01T11:30:06;4.95;;;4.32;;
25649;SDS011;13505;45.196;5.696;2022-09-01T11:34:58;5.95;;;4.47;;
25649;SDS011;13505;45.196;5.696;2022-09-01T11:39:54;5.00;;;4.32;;
25649;SDS011;13505;45.196;5.696;2022-09-01T11:49:59;4.97;;;4.40;;
25649;SDS011;13505;45.196;5.696;2022-09-01T11:54:53;7.43;;;4.45;;
25649;SDS011;13505;45.196;5.696;2022-09-01T11:59:43;6.23;;;4.27;;
25649;SDS011;13505;45.196;5.696;2022-09-01T12:04:34;5.47;;;4.40;;
25649;SDS011;13505;45.196;5.696;2022-09-01T12:10:02;8.70;;;4.90;;
25649;SDS011;13505;45.196;5.696;2022-09-01T12:14:54;6.82;;;4.28;;
25649;SDS011;13505;45.196;5.696;2022-09-01T12:19:45;4.15;;;3.75;;
25649;SDS011;13505;45.196;5.696;2022-09-01T12:24:36;4.17;;;3.70;;
25649;SDS011;13505;45.196;5.696;2022-09-01T12:29:27;4.43;;;4.00;;
25649;SDS011;13505;45.196;5.696;2022-09-01T12:40:04;3.97;;;3.53;;
25649;SDS011;13505;45.196;5.696;2022-09-01T12:44:49;4.20;;;3.80;;
25649;SDS011;13505;45.196;5.696;2022-09-01T12:49:45;4.70;;;3.67;;
25649;SDS011;13505;45.196;5.696;2022-09-01T12:54:36;5.18;;;3.60;;
25649;SDS011;13505;45.196;5.696;2022-09-01T12:59:27;5.22;;;3.63;;
25649;SDS011;13505;45.196;5.696;2022-09-01T13:09:11;3.65;;;3.28;;
25649;SDS011;13505;45.196;5.696;2022-09-01T13:14:01;5.60;;;3.47;;
25649;SDS011;13505;45.196;5.696;2022-09-01T13:18:52;3.60;;;3.30;;
25649;SDS011;13505;45.196;5.696;2022-09-01T13:23:42;3.97;;;3.47;;
25649;SDS011;13505;45.196;5.696;2022-09-01T13:28:33;4.75;;;3.58;;
25649;SDS011;13505;45.196;5.696;2022-09-01T13:33:27;3.65;;;3.35;;
25649;SDS011;13505;45.196;5.696;2022-09-01T13:38:18;3.75;;;3.42;;
25649;SDS011;13505;45.196;5.696;2022-09-01T13:43:09;4.38;;;3.40;;
25649;SDS011;13505;45.196;5.696;2022-09-01T13:48:00;4.95;;;3.40;;
25649;SDS011;13505;45.196;5.696;2022-09-01T13:52:53;6.25;;;3.40;;
25649;SDS011;13505;45.196;5.696;2022-09-01T13:57:45;4.10;;;3.08;;
25649;SDS011;13505;45.196;5.696;2022-09-01T14:02:37;3.57;;;3.10;;
25649;SDS011;13505;45.196;5.696;2022-09-01T14:07:29;5.07;;;3.80;;
25649;SDS011;13505;45.196;5.696;2022-09-01T14:12:19;4.63;;;3.60;;
25649;SDS011;13505;45.196;5.696;2022-09-01T14:17:09;10.13;;;3.37;;
25649;SDS011;13505;45.196;5.696;2022-09-01T14:22:00;4.10;;;3.45;;
25649;SDS011;13505;45.196;5.696;2022-09-01T14:26:55;10.20;;;2.95;;
25649;SDS011;13505;45.196;5.696;2022-09-01T14:31:45;3.17;;;2.87;;
25649;SDS011;13505;45.196;5.696;2022-09-01T14:36:35;3.22;;;2.88;;
25649;SDS011;13505;45.196;5.696;2022-09-01T14:41:26;3.47;;;2.73;;
25649;SDS011;13505;45.196;5.696;2022-09-01T14:46:16;3.37;;;2.63;;
25649;SDS011;13505;45.196;5.696;2022-09-01T14:51:16;3.45;;;3.15;;
25649;SDS011;13505;45.196;5.696;2022-09-01T14:56:11;3.60;;;2.97;;
25649;SDS011;13505;45.196;5.696;2022-09-01T15:01:02;3.40;;;3.10;;
25649;SDS011;13505;45.196;5.696;2022-09-01T15:05:52;3.63;;;3.00;;
25649;SDS011;13505;45.196;5.696;2022-09-01T15:10:43;3.50;;;2.78;;
25649;SDS011;13505;45.196;5.696;2022-09-01T15:15:33;3.55;;;3.00;;
25649;SDS011;13505;45.196;5.696;2022-09-01T15:20:24;4.72;;;2.80;;
25649;SDS011;13505;45.196;5.696;2022-09-01T15:25:33;4.72;;;3.00;;
25649;SDS011;13505;45.196;5.696;2022-09-01T15:30:23;7.45;;;2.50;;
25649;SDS011;13505;45.196;5.696;2022-09-01T15:35:14;4.32;;;2.72;;
25649;SDS011;13505;45.196;5.696;2022-09-01T15:40:05;3.33;;;3.03;;
25649;SDS011;13505;45.196;5.696;2022-09-01T15:44:56;3.80;;;2.55;;
25649;SDS011;13505;45.196;5.696;2022-09-01T15:49:47;2.77;;;2.50;;
25649;SDS011;13505;45.196;5.696;2022-09-01T15:54:37;4.47;;;2.90;;
25649;SDS011;13505;45.196;5.696;2022-09-01T15:59:28;8.55;;;3.55;;
25649;SDS011;13505;45.196;5.696;2022-09-01T16:04:18;7.03;;;3.60;;
25649;SDS011;13505;45.196;5.696;2022-09-01T16:09:09;3.78;;;2.53;;
25649;SDS011;13505;45.196;5.696;2022-09-01T16:14:00;3.25;;;2.80;;
25649;SDS011;13505;45.196;5.696;2022-09-01T16:18:56;3.97;;;2.40;;
25649;SDS011;13505;45.196;5.696;2022-09-01T16:23:51;5.72;;;2.92;;
25649;SDS011;13505;45.196;5.696;2022-09-01T16:28:44;7.70;;;3.25;;
25649;SDS011;13505;45.196;5.696;2022-09-01T16:33:37;4.25;;;3.10;;
25649;SDS011;13505;45.196;5.696;2022-09-01T16:38:34;5.60;;;2.78;;
25649;SDS011;13505;45.196;5.696;2022-09-01T16:48:53;4.68;;;3.13;;
25649;SDS011;13505;45.196;5.696;2022-09-01T17:04:41;5.50;;;3.58;;
25649;SDS011;13505;45.196;5.696;2022-09-01T17:09:43;4.30;;;3.00;;
25649;SDS011;13505;45.196;5.696;2022-09-01T17:14:40;5.60;;;3.30;;
25649;SDS011;13505;45.196;5.696;2022-09-01T17:19:36;7.35;;;3.88;;
25649;SDS011;13505;45.196;5.696;2022-09-01T17:24:37;7.78;;;4.68;;
25649;SDS011;13505;45.196;5.696;2022-09-01T17:29:33;5.97;;;3.42;;
25649;SDS011;13505;45.196;5.696;2022-09-01T17:44:48;8.35;;;4.20;;
25649;SDS011;13505;45.196;5.696;2022-09-01T17:54:57;9.65;;;3.53;;
25649;SDS011;13505;45.196;5.696;2022-09-01T18:00:00;4.03;;;3.30;;
25649;SDS011;13505;45.196;5.696;2022-09-01T18:05:10;5.07;;;3.65;;
25649;SDS011;13505;45.196;5.696;2022-09-01T18:10:03;6.47;;;3.53;;
25649;SDS011;13505;45.196;5.696;2022-09-01T18:25:08;5.18;;;3.67;;
25649;SDS011;13505;45.196;5.696;2022-09-01T18:30:04;8.55;;;3.92;;
25649;SDS011;13505;45.196;5.696;2022-09-01T18:40:35;5.75;;;4.00;;
25649;SDS011;13505;45.196;5.696;2022-09-01T18:45:51;4.75;;;3.92;;
25649;SDS011;13505;45.196;5.696;2022-09-01T18:50:53;5.95;;;4.10;;
25649;SDS011;13505;45.196;5.696;2022-09-01T18:55:54;3.92;;;3.15;;
25649;SDS011;13505;45.196;5.696;2022-09-01T19:01:04;3.70;;;3.35;;
25649;SDS011;13505;45.196;5.696;2022-09-01T19:11:23;3.92;;;3.45;;
25649;SDS011;13505;45.196;5.696;2022-09-01T19:21:24;3.60;;;3.30;;
25649;SDS011;13505;45.196;5.696;2022-09-01T19:26:20;4.25;;;3.53;;
25649;SDS011;13505;45.196;5.696;2022-09-01T19:31:27;5.75;;;3.72;;
25649;SDS011;13505;45.196;5.696;2022-09-01T19:36:22;4.75;;;3.50;;
25649;SDS011;13505;45.196;5.696;2022-09-01T19:46:38;4.50;;;3.95;;
25649;SDS011;13505;45.196;5.696;2022-09-01T19:51:33;5.32;;;3.20;;
25649;SDS011;13505;45.196;5.696;2022-09-01T19:56:36;6.93;;;3.67;;
25649;SDS011;13505;45.196;5.696;2022-09-01T20:01:37;7.25;;;3.92;;
25649;SDS011;13505;45.196;5.696;2022-09-01T20:06:46;4.55;;;4.05;;
25649;SDS011;13505;45.196;5.696;2022-09-01T20:16:31;5.70;;;3.37;;
25649;SDS011;13505;45.196;5.696;2022-09-01T20:21:25;6.00;;;3.35;;
25649;SDS011;13505;45.196;5.696;2022-09-01T20:26:19;7.30;;;3.88;;
25649;SDS011;13505;45.196;5.696;2022-09-01T20:31:19;7.38;;;4.05;;
25649;SDS011;13505;45.196;5.696;2022-09-01T20:36:26;5.95;;;3.90;;
25649;SDS011;13505;45.196;5.696;2022-09-01T20:41:29;4.90;;;4.18;;
25649;SDS011;13505;45.196;5.696;2022-09-01T20:46:33;5.97;;;3.70;;
25649;SDS011;13505;45.196;5.696;2022-09-01T20:56:45;6.28;;;3.72;;
25649;SDS011;13505;45.196;5.696;2022-09-01T21:06:48;6.65;;;3.97;;
25649;SDS011;13505;45.196;5.696;2022-09-01T21:11:47;4.70;;;3.97;;
25649;SDS011;13505;45.196;5.696;2022-09-01T21:21:53;7.82;;;4.53;;
25649;SDS011;13505;45.196;5.696;2022-09-01T21:26:49;4.95;;;3.60;;
25649;SDS011;13505;45.196;5.696;2022-09-01T21:31:45;6.80;;;4.30;;
25649;SDS011;13505;45.196;5.696;2022-09-01T21:36:36;8.30;;;3.80;;
25649;SDS011;13505;45.196;5.696;2022-09-01T21:41:26;7.17;;;4.33;;
25649;SDS011;13505;45.196;5.696;2022-09-01T21:46:17;6.10;;;3.92;;
25649;SDS011;13505;45.196;5.696;2022-09-01T21:51:09;6.90;;;3.97;;
25649;SDS011;13505;45.196;5.696;2022-09-01T21:55:59;4.33;;;3.93;;
